sensor_id;sensor_type;location;lat;lon;timestamp;pressure;altitude;pressure_sealevel;temperature;humidity
41624;BME280;27319;50.306;18.926;2024-03-23T00:57:07;97740.75;;;8.95;83.19
41624;BME280;27319;50.306;18.926;2024-03-23T01:01:08;97747.72;;;8.86;84.55
41624;BME280;27319;50.306;18.926;2024-03-23T01:05:09;97739.63;;;8.79;85.51
41624;BME280;27319;50.306;18.926;2024-03-23T01:09:10;97738.88;;;8.71;86.32
41624;BME280;27319;50.306;18.926;2024-03-23T01:13:10;97731.53;;;8.75;85.32
41624;BME280;27319;50.306;18.926;2024-03-23T01:17:11;97734.22;;;8.79;84.69
41624;BME280;27319;50.306;18.926;2024-03-23T01:21:12;97730.03;;;8.71;85.85
41624;BME280;27319;50.306;18.926;2024-03-23T01:25:13;97712.25;;;8.77;86.02
41624;BME280;27319;50.306;18.926;2024-03-23T01:29:14;97708.41;;;8.67;86.78
41624;BME280;27319;50.306;18.926;2024-03-23T01:33:14;97700.72;;;8.69;87.21
41624;BME280;27319;50.306;18.926;2024-03-23T01:37:15;97702.66;;;8.54;86.94
41624;BME280;27319;50.306;18.926;2024-03-23T01:41:16;97687.97;;;8.59;87.59
41624;BME280;27319;50.306;18.926;2024-03-23T01:45:17;97688.78;;;8.56;87.06
41624;BME280;27319;50.306;18.926;2024-03-23T01:49:18;97677.19;;;8.66;86.24
41624;BME280;27319;50.306;18.926;2024-03-23T01:53:19;97674.50;;;8.59;86.80
41624;BME280;27319;50.306;18.926;2024-03-23T01:57:19;97669.88;;;8.56;86.50
41624;BME280;27319;50.306;18.926;2024-03-23T02:01:20;97669.09;;;8.59;87.52
41624;BME280;27319;50.306;18.926;2024-03-23T02:05:21;97678.31;;;8.72;85.63
41624;BME280;27319;50.306;18.926;2024-03-23T02:09:22;97675.22;;;8.84;84.87
41624;BME280;27319;50.306;18.926;2024-03-23T02:13:23;97677.56;;;8.68;86.17
41624;BME280;27319;50.306;18.926;2024-03-23T02:17:23;97674.47;;;8.66;86.46
41624;BME280;27319;50.306;18.926;2024-03-23T02:21:24;97663.34;;;8.57;89.75
41624;BME280;27319;50.306;18.926;2024-03-23T02:25:25;97662.16;;;8.51;91.06
41624;BME280;27319;50.306;18.926;2024-03-23T02:29:26;97658.72;;;8.43;92.09
41624;BME280;27319;50.306;18.926;2024-03-23T02:33:27;97657.53;;;8.44;90.93
41624;BME280;27319;50.306;18.926;2024-03-23T02:37:31;97641.75;;;8.46;91.78
41624;BME280;27319;50.306;18.926;2024-03-23T02:41:31;97650.63;;;8.47;90.92
41624;BME280;27319;50.306;18.926;2024-03-23T02:45:32;97645.16;;;8.68;90.25
41624;BME280;27319;50.306;18.926;2024-03-23T02:49:33;97641.38;;;8.48;91.81
41624;BME280;27319;50.306;18.926;2024-03-23T02:53:34;97638.28;;;8.39;92.62
41624;BME280;27319;50.306;18.926;2024-03-23T02:57:35;97632.13;;;8.38;92.40
41624;BME280;27319;50.306;18.926;2024-03-23T03:01:35;97609.41;;;8.36;93.23
41624;BME280;27319;50.306;18.926;2024-03-23T03:05:36;97607.06;;;8.30;93.31
41624;BME280;27319;50.306;18.926;2024-03-23T03:09:37;97612.09;;;8.21;94.61
41624;BME280;27319;50.306;18.926;2024-03-23T03:13:38;97619.03;;;8.22;94.29
41624;BME280;27319;50.306;18.926;2024-03-23T03:17:39;97615.16;;;8.23;93.43
41624;BME280;27319;50.306;18.926;2024-03-23T03:21:20;97596.28;;;8.30;92.08
41624;BME280;27319;50.306;18.926;2024-03-23T03:24:21;97591.66;;;8.35;91.87
41624;BME280;27319;50.306;18.926;2024-03-23T03:27:42;97603.63;;;8.34;90.97
41624;BME280;27319;50.306;18.926;2024-03-23T03:31:43;97590.50;;;8.43;92.68
41624;BME280;27319;50.306;18.926;2024-03-23T03:35:43;97578.56;;;8.37;92.84
41624;BME280;27319;50.306;18.926;2024-03-23T03:39:44;97576.66;;;8.12;94.99
41624;BME280;27319;50.306;18.926;2024-03-23T03:43:44;97574.69;;;8.23;94.89
41624;BME280;27319;50.306;18.926;2024-03-23T03:47:45;97579.72;;;8.18;93.90
41624;BME280;27319;50.306;18.926;2024-03-23T03:51:46;97583.56;;;8.20;94.17
41624;BME280;27319;50.306;18.926;2024-03-23T03:55:47;97585.09;;;8.28;91.72
41624;BME280;27319;50.306;18.926;2024-03-23T03:59:48;97587.44;;;8.34;92.95
41624;BME280;27319;50.306;18.926;2024-03-23T04:03:51;97575.47;;;8.35;91.13
41624;BME280;27319;50.306;18.926;2024-03-23T04:07:52;97564.34;;;8.01;96.07
41624;BME280;27319;50.306;18.926;2024-03-23T04:11:53;97554.72;;;7.93;96.89
41624;BME280;27319;50.306;18.926;2024-03-23T04:15:09;97547.41;;;8.00;95.17
41624;BME280;27319;50.306;18.926;2024-03-23T04:18:30;97552.78;;;8.07;94.21
41624;BME280;27319;50.306;18.926;2024-03-23T04:22:31;97548.13;;;8.33;91.31
41624;BME280;27319;50.306;18.926;2024-03-23T04:26:49;97535.03;;;8.20;93.76
41624;BME280;27319;50.306;18.926;2024-03-23T04:30:35;97527.38;;;8.01;94.32
41624;BME280;27319;50.306;18.926;2024-03-23T04:34:36;97516.19;;;8.06;93.99
41624;BME280;27319;50.306;18.926;2024-03-23T04:38:37;97511.19;;;8.08;93.92
41624;BME280;27319;50.306;18.926;2024-03-23T04:42:37;97502.69;;;8.03;94.89
41624;BME280;27319;50.306;18.926;2024-03-23T04:46:38;97504.19;;;8.28;93.17
41624;BME280;27319;50.306;18.926;2024-03-23T04:50:39;97508.03;;;8.27;92.95
41624;BME280;27319;50.306;18.926;2024-03-23T04:54:40;97510.38;;;8.22;92.85
41624;BME280;27319;50.306;18.926;2024-03-23T04:58:41;97518.03;;;8.23;92.67
41624;BME280;27319;50.306;18.926;2024-03-23T05:02:42;97509.59;;;8.18;94.19
41624;BME280;27319;50.306;18.926;2024-03-23T05:06:42;97499.56;;;8.18;92.22
41624;BME280;27319;50.306;18.926;2024-03-23T05:10:43;97496.88;;;8.18;94.59
41624;BME280;27319;50.306;18.926;2024-03-23T05:14:44;97491.88;;;8.13;94.89
41624;BME280;27319;50.306;18.926;2024-03-23T05:18:45;97496.91;;;8.04;96.23
41624;BME280;27319;50.306;18.926;2024-03-23T05:22:45;97494.59;;;8.10;94.64
41624;BME280;27319;50.306;18.926;2024-03-23T05:26:47;97481.09;;;8.13;95.47
41624;BME280;27319;50.306;18.926;2024-03-23T05:30:53;97475.72;;;8.06;96.88
41624;BME280;27319;50.306;18.926;2024-03-23T05:34:54;97472.63;;;8.15;96.50
41624;BME280;27319;50.306;18.926;2024-03-23T05:38:55;97469.16;;;8.14;96.57
41624;BME280;27319;50.306;18.926;2024-03-23T05:42:56;97467.22;;;8.11;97.40
41624;BME280;27319;50.306;18.926;2024-03-23T05:46:56;97476.44;;;8.24;95.85
41624;BME280;27319;50.306;18.926;2024-03-23T05:50:57;97473.72;;;8.28;95.76
41624;BME280;27319;50.306;18.926;2024-03-23T05:54:58;97464.88;;;8.24;96.31
41624;BME280;27319;50.306;18.926;2024-03-23T05:58:59;97446.41;;;8.22;96.63
41624;BME280;27319;50.306;18.926;2024-03-23T06:03:00;97443.28;;;8.31;96.20
41624;BME280;27319;50.306;18.926;2024-03-23T06:07:01;97431.72;;;8.30;96.41
41624;BME280;27319;50.306;18.926;2024-03-23T06:11:02;97418.63;;;8.25;96.92
41624;BME280;27319;50.306;18.926;2024-03-23T06:15:02;97424.41;;;8.31;96.26
41624;BME280;27319;50.306;18.926;2024-03-23T06:19:03;97434.81;;;8.33;96.66
41624;BME280;27319;50.306;18.926;2024-03-23T06:23:04;97429.75;;;8.42;97.56
41624;BME280;27319;50.306;18.926;2024-03-23T06:27:05;97417.00;;;8.49;96.93
41624;BME280;27319;50.306;18.926;2024-03-23T06:31:08;97418.44;;;8.64;96.73
41624;BME280;27319;50.306;18.926;2024-03-23T06:35:06;97422.59;;;8.80;94.83
41624;BME280;27319;50.306;18.926;2024-03-23T06:39:07;97416.69;;;8.95;95.15
41624;BME280;27319;50.306;18.926;2024-03-23T06:43:08;97425.13;;;9.04;93.59
41624;BME280;27319;50.306;18.926;2024-03-23T06:47:09;97417.31;;;9.14;92.22
41624;BME280;27319;50.306;18.926;2024-03-23T06:51:09;97420.31;;;9.26;90.22
41624;BME280;27319;50.306;18.926;2024-03-23T06:55:11;97407.50;;;9.34;93.23
41624;BME280;27319;50.306;18.926;2024-03-23T06:59:12;97400.47;;;9.43;90.26
41624;BME280;27319;50.306;18.926;2024-03-23T07:03:13;97408.88;;;9.53;91.00
41624;BME280;27319;50.306;18.926;2024-03-23T07:07:13;97402.84;;;9.75;87.89
41624;BME280;27319;50.306;18.926;2024-03-23T07:11:23;97394.06;;;10.02;83.85
41624;BME280;27319;50.306;18.926;2024-03-23T07:15:24;97400.75;;;10.24;84.11
41624;BME280;27319;50.306;18.926;2024-03-23T07:19:25;97398.31;;;10.33;82.46
41624;BME280;27319;50.306;18.926;2024-03-23T07:23:25;97389.47;;;10.29;82.82
41624;BME280;27319;50.306;18.926;2024-03-23T07:27:26;97391.38;;;10.32;81.15
41624;BME280;27319;50.306;18.926;2024-03-23T07:31:27;97390.09;;;10.40;79.79
41624;BME280;27319;50.306;18.926;2024-03-23T07:35:08;97380.34;;;10.46;80.17
41624;BME280;27319;50.306;18.926;2024-03-23T07:38:29;97391.81;;;10.57;79.80
41624;BME280;27319;50.306;18.926;2024-03-23T07:42:30;97380.34;;;10.73;78.10
41624;BME280;27319;50.306;18.926;2024-03-23T07:46:30;97377.53;;;10.80;78.83
41624;BME280;27319;50.306;18.926;2024-03-23T07:50:31;97366.34;;;11.01;78.69
41624;BME280;27319;50.306;18.926;2024-03-23T07:54:32;97361.88;;;10.91;79.65
41624;BME280;27319;50.306;18.926;2024-03-23T07:58:33;97363.47;;;11.12;76.31
41624;BME280;27319;50.306;18.926;2024-03-23T08:02:33;97343.88;;;11.48;75.01
41624;BME280;27319;50.306;18.926;2024-03-23T08:06:37;97335.00;;;11.67;75.37
41624;BME280;27319;50.306;18.926;2024-03-23T08:10:51;97341.25;;;12.03;73.31
41624;BME280;27319;50.306;18.926;2024-03-23T08:14:48;97324.09;;;12.26;72.32
41624;BME280;27319;50.306;18.926;2024-03-23T08:18:51;97317.50;;;12.59;70.70
41624;BME280;27319;50.306;18.926;2024-03-23T08:22:53;97311.91;;;12.67;68.23
41624;BME280;27319;50.306;18.926;2024-03-23T08:26:54;97310.22;;;12.56;69.84
41624;BME280;27319;50.306;18.926;2024-03-23T08:30:55;97290.28;;;12.63;67.60
41624;BME280;27319;50.306;18.926;2024-03-23T08:34:55;97275.59;;;12.60;68.91
41624;BME280;27319;50.306;18.926;2024-03-23T08:38:56;97261.41;;;12.85;70.77
41624;BME280;27319;50.306;18.926;2024-03-23T08:42:57;97259.28;;;13.22;68.39
41624;BME280;27319;50.306;18.926;2024-03-23T08:46:58;97255.88;;;13.34;68.53
41624;BME280;27319;50.306;18.926;2024-03-23T08:51:08;97249.75;;;13.71;64.91
41624;BME280;27319;50.306;18.926;2024-03-23T08:54:59;97245.78;;;13.89;64.70
41624;BME280;27319;50.306;18.926;2024-03-23T08:59:00;97239.66;;;13.85;63.10
41624;BME280;27319;50.306;18.926;2024-03-23T09:03:01;97232.72;;;14.09;62.67
41624;BME280;27319;50.306;18.926;2024-03-23T09:07:02;97229.44;;;14.14;60.82
41624;BME280;27319;50.306;18.926;2024-03-23T09:11:04;97222.00;;;14.27;61.49
41624;BME280;27319;50.306;18.926;2024-03-23T09:15:04;97217.00;;;14.38;60.31
41624;BME280;27319;50.306;18.926;2024-03-23T09:19:05;97199.69;;;14.45;60.22
41624;BME280;27319;50.306;18.926;2024-03-23T09:23:06;97188.56;;;14.52;61.17
41624;BME280;27319;50.306;18.926;2024-03-23T09:27:07;97181.69;;;14.47;59.43
41624;BME280;27319;50.306;18.926;2024-03-23T09:31:08;97161.06;;;14.59;59.88
41624;BME280;27319;50.306;18.926;2024-03-23T09:35:08;97151.88;;;15.00;58.43
41624;BME280;27319;50.306;18.926;2024-03-23T09:39:09;97149.19;;;15.09;57.84
41624;BME280;27319;50.306;18.926;2024-03-23T09:43:10;97150.47;;;15.17;55.79
41624;BME280;27319;50.306;18.926;2024-03-23T09:47:10;97139.56;;;15.17;56.22
41624;BME280;27319;50.306;18.926;2024-03-23T09:51:11;97130.91;;;15.41;57.21
41624;BME280;27319;50.306;18.926;2024-03-23T09:55:12;97115.25;;;15.63;57.26
41624;BME280;27319;50.306;18.926;2024-03-23T09:59:12;97112.63;;;15.90;55.49
41624;BME280;27319;50.306;18.926;2024-03-23T10:03:16;97098.38;;;15.95;54.66
41624;BME280;27319;50.306;18.926;2024-03-23T10:07:20;97092.47;;;16.06;54.17
41624;BME280;27319;50.306;18.926;2024-03-23T10:10:56;97083.53;;;16.05;51.95
41624;BME280;27319;50.306;18.926;2024-03-23T10:14:28;97097.34;;;16.20;51.63
41624;BME280;27319;50.306;18.926;2024-03-23T10:18:20;97079.63;;;16.43;52.64
41624;BME280;27319;50.306;18.926;2024-03-23T10:22:22;97062.63;;;16.84;50.77
41624;BME280;27319;50.306;18.926;2024-03-23T10:26:33;97061.16;;;17.16;49.79
41624;BME280;27319;50.306;18.926;2024-03-23T10:30:35;97059.28;;;17.83;49.82
41624;BME280;27319;50.306;18.926;2024-03-23T10:34:36;97064.59;;;18.10;48.69
41624;BME280;27319;50.306;18.926;2024-03-23T10:38:36;97046.69;;;17.76;49.12
41624;BME280;27319;50.306;18.926;2024-03-23T10:42:01;97047.09;;;17.84;48.81
41624;BME280;27319;50.306;18.926;2024-03-23T10:45:04;97037.41;;;17.74;48.48
41624;BME280;27319;50.306;18.926;2024-03-23T10:48:25;97022.38;;;17.93;47.73
41624;BME280;27319;50.306;18.926;2024-03-23T10:52:26;97016.53;;;18.24;46.09
41624;BME280;27319;50.306;18.926;2024-03-23T10:56:27;97010.22;;;18.47;48.28
41624;BME280;27319;50.306;18.926;2024-03-23T11:00:28;96983.22;;;18.99;49.13
41624;BME280;27319;50.306;18.926;2024-03-23T11:04:35;96966.09;;;19.04;45.77
41624;BME280;27319;50.306;18.926;2024-03-23T11:08:37;96957.28;;;19.14;47.19
41624;BME280;27319;50.306;18.926;2024-03-23T11:15:41;96931.78;;;19.63;45.67
41624;BME280;27319;50.306;18.926;2024-03-23T11:22:45;96904.47;;;20.00;44.86
41624;BME280;27319;50.306;18.926;2024-03-23T11:25:51;96907.53;;;19.82;43.93
41624;BME280;27319;50.306;18.926;2024-03-23T11:29:09;96885.84;;;19.84;40.00
41624;BME280;27319;50.306;18.926;2024-03-23T11:32:30;96892.19;;;20.22;40.86
41624;BME280;27319;50.306;18.926;2024-03-23T11:36:31;96873.19;;;20.44;41.21
41624;BME280;27319;50.306;18.926;2024-03-23T11:40:41;96849.69;;;20.74;42.71
41624;BME280;27319;50.306;18.926;2024-03-23T11:44:19;96825.69;;;20.80;41.59
41624;BME280;27319;50.306;18.926;2024-03-23T11:47:39;96829.69;;;20.79;39.68
41624;BME280;27319;50.306;18.926;2024-03-23T11:51:40;96825.41;;;20.73;40.81
41624;BME280;27319;50.306;18.926;2024-03-23T11:55:42;96816.59;;;21.11;40.90
41624;BME280;27319;50.306;18.926;2024-03-23T11:59:54;96814.13;;;20.71;37.55
41624;BME280;27319;50.306;18.926;2024-03-23T12:03:55;96803.81;;;20.60;38.23
41624;BME280;27319;50.306;18.926;2024-03-23T12:07:33;96782.19;;;20.84;39.05
41624;BME280;27319;50.306;18.926;2024-03-23T12:10:33;96780.03;;;21.00;38.71
41624;BME280;27319;50.306;18.926;2024-03-23T12:13:34;96776.69;;;21.38;39.25
41624;BME280;27319;50.306;18.926;2024-03-23T12:16:55;96766.00;;;21.63;38.98
41624;BME280;27319;50.306;18.926;2024-03-23T12:20:56;96748.94;;;21.58;36.68
41624;BME280;27319;50.306;18.926;2024-03-23T12:24:59;96740.94;;;21.60;35.92
41624;BME280;27319;50.306;18.926;2024-03-23T12:29:00;96745.75;;;21.01;35.21
41624;BME280;27319;50.306;18.926;2024-03-23T12:33:01;96743.47;;;20.94;34.46
41624;BME280;27319;50.306;18.926;2024-03-23T12:37:02;96712.66;;;21.82;34.56
41624;BME280;27319;50.306;18.926;2024-03-23T12:41:06;96717.34;;;21.37;34.37
41624;BME280;27319;50.306;18.926;2024-03-23T12:45:07;96690.84;;;21.79;34.27
41624;BME280;27319;50.306;18.926;2024-03-23T12:49:07;96688.84;;;21.74;33.44
41624;BME280;27319;50.306;18.926;2024-03-23T12:53:08;96680.50;;;21.23;33.83
41624;BME280;27319;50.306;18.926;2024-03-23T12:57:09;96676.25;;;19.84;36.44
41624;BME280;27319;50.306;18.926;2024-03-23T13:01:10;96683.09;;;19.62;38.20
41624;BME280;27319;50.306;18.926;2024-03-23T13:05:11;96670.97;;;19.80;40.67
41624;BME280;27319;50.306;18.926;2024-03-23T13:09:12;96668.41;;;21.04;35.56
41624;BME280;27319;50.306;18.926;2024-03-23T13:13:12;96672.75;;;20.20;36.34
41624;BME280;27319;50.306;18.926;2024-03-23T13:17:13;96664.31;;;19.09;37.14
41624;BME280;27319;50.306;18.926;2024-03-23T13:21:14;96679.13;;;18.97;38.72
41624;BME280;27319;50.306;18.926;2024-03-23T13:25:14;96671.47;;;18.61;39.09
41624;BME280;27319;50.306;18.926;2024-03-23T13:29:15;96687.06;;;18.34;38.75
41624;BME280;27319;50.306;18.926;2024-03-23T13:33:16;96709.63;;;18.09;40.42
41624;BME280;27319;50.306;18.926;2024-03-23T13:37:17;96845.28;;;16.20;53.75
41624;BME280;27319;50.306;18.926;2024-03-23T13:41:18;96895.78;;;12.84;77.17
41624;BME280;27319;50.306;18.926;2024-03-23T13:45:18;96935.63;;;11.79;85.55
41624;BME280;27319;50.306;18.926;2024-03-23T13:53:00;96951.75;;;11.54;87.71
41624;BME280;27319;50.306;18.926;2024-03-23T13:57:01;96948.78;;;10.83;90.92
41624;BME280;27319;50.306;18.926;2024-03-23T14:01:02;96980.72;;;11.08;89.27
41624;BME280;27319;50.306;18.926;2024-03-23T14:05:03;96983.63;;;10.81;89.31
41624;BME280;27319;50.306;18.926;2024-03-23T14:09:04;96997.94;;;10.82;88.10
41624;BME280;27319;50.306;18.926;2024-03-23T14:13:04;96997.47;;;10.67;88.64
41624;BME280;27319;50.306;18.926;2024-03-23T14:17:05;96992.19;;;10.80;86.71
41624;BME280;27319;50.306;18.926;2024-03-23T14:21:06;96998.97;;;10.88;88.05
41624;BME280;27319;50.306;18.926;2024-03-23T14:24:47;96982.84;;;11.17;87.71
41624;BME280;27319;50.306;18.926;2024-03-23T14:28:08;96970.31;;;11.23;86.59
41624;BME280;27319;50.306;18.926;2024-03-23T14:32:08;96950.75;;;11.31;87.09
41624;BME280;27319;50.306;18.926;2024-03-23T14:36:15;96942.81;;;11.40;86.86
41624;BME280;27319;50.306;18.926;2024-03-23T14:40:16;96930.19;;;11.63;85.64
41624;BME280;27319;50.306;18.926;2024-03-23T14:44:16;96925.97;;;11.62;84.45
41624;BME280;27319;50.306;18.926;2024-03-23T14:48:17;96914.16;;;11.39;85.19
41624;BME280;27319;50.306;18.926;2024-03-23T14:52:18;96902.50;;;11.10;85.64
41624;BME280;27319;50.306;18.926;2024-03-23T14:56:19;96917.91;;;11.13;85.77
41624;BME280;27319;50.306;18.926;2024-03-23T15:00:20;96913.66;;;11.28;86.27
41624;BME280;27319;50.306;18.926;2024-03-23T15:04:20;96899.16;;;10.86;87.09
41624;BME280;27319;50.306;18.926;2024-03-23T15:08:24;96898.84;;;11.00;89.13
41624;BME280;27319;50.306;18.926;2024-03-23T15:12:25;96948.38;;;11.17;88.40
41624;BME280;27319;50.306;18.926;2024-03-23T15:16:26;96964.13;;;11.22;88.25
41624;BME280;27319;50.306;18.926;2024-03-23T15:20:26;96967.00;;;10.99;90.23
41624;BME280;27319;50.306;18.926;2024-03-23T15:24:28;96977.16;;;10.95;89.94
41624;BME280;27319;50.306;18.926;2024-03-23T15:28:29;96969.63;;;11.02;89.46
41624;BME280;27319;50.306;18.926;2024-03-23T15:32:18;96973.25;;;10.96;92.02
41624;BME280;27319;50.306;18.926;2024-03-23T15:36:19;96965.69;;;10.87;93.33
41624;BME280;27319;50.306;18.926;2024-03-23T15:40:20;96959.69;;;10.80;92.92
41624;BME280;27319;50.306;18.926;2024-03-23T15:44:20;96947.50;;;10.72;93.87
41624;BME280;27319;50.306;18.926;2024-03-23T15:48:21;96966.22;;;10.82;93.73
41624;BME280;27319;50.306;18.926;2024-03-23T15:52:22;96976.78;;;10.77;93.76
41624;BME280;27319;50.306;18.926;2024-03-23T15:56:23;96983.22;;;10.83;93.28
41624;BME280;27319;50.306;18.926;2024-03-23T16:00:23;96983.03;;;10.74;94.65
41624;BME280;27319;50.306;18.926;2024-03-23T16:04:24;96985.06;;;10.70;95.46
41624;BME280;27319;50.306;18.926;2024-03-23T16:08:25;96987.97;;;10.59;95.68
41624;BME280;27319;50.306;18.926;2024-03-23T16:12:26;97005.59;;;11.03;92.88
41624;BME280;27319;50.306;18.926;2024-03-23T16:16:27;97109.66;;;10.86;93.63
41624;BME280;27319;50.306;18.926;2024-03-23T16:20:28;97112.22;;;9.33;84.53
41624;BME280;27319;50.306;18.926;2024-03-23T16:24:29;97130.69;;;8.78;86.68
41624;BME280;27319;50.306;18.926;2024-03-23T16:28:31;97129.31;;;8.59;86.28
41624;BME280;27319;50.306;18.926;2024-03-23T16:32:30;97124.69;;;8.59;88.02
41624;BME280;27319;50.306;18.926;2024-03-23T16:36:31;97126.44;;;8.43;87.54
41624;BME280;27319;50.306;18.926;2024-03-23T16:40:32;97161.13;;;8.41;88.62
41624;BME280;27319;50.306;18.926;2024-03-23T16:44:33;97198.16;;;8.37;88.46
41624;BME280;27319;50.306;18.926;2024-03-23T16:48:34;97223.53;;;7.87;87.12
41624;BME280;27319;50.306;18.926;2024-03-23T16:52:34;97221.69;;;7.74;88.91
41624;BME280;27319;50.306;18.926;2024-03-23T16:56:35;97229.66;;;7.15;89.74
41624;BME280;27319;50.306;18.926;2024-03-23T17:00:36;97238.41;;;7.40;89.66
41624;BME280;27319;50.306;18.926;2024-03-23T17:04:37;97246.44;;;7.47;90.05
41624;BME280;27319;50.306;18.926;2024-03-23T17:08:37;97253.38;;;7.48;90.19
41624;BME280;27319;50.306;18.926;2024-03-23T17:12:38;97260.38;;;7.32;90.72
41624;BME280;27319;50.306;18.926;2024-03-23T17:16:09;97272.00;;;7.00;89.49
41624;BME280;27319;50.306;18.926;2024-03-23T17:19:31;97279.69;;;7.02;88.99
41624;BME280;27319;50.306;18.926;2024-03-23T17:22:59;97286.66;;;6.82;89.52
41624;BME280;27319;50.306;18.926;2024-03-23T17:26:27;97293.56;;;6.76;89.50
41624;BME280;27319;50.306;18.926;2024-03-23T17:30:28;97305.09;;;6.80;87.26
41624;BME280;27319;50.306;18.926;2024-03-23T17:34:29;97307.41;;;6.74;87.41
41624;BME280;27319;50.306;18.926;2024-03-23T17:38:30;97312.41;;;6.83;87.11
41624;BME280;27319;50.306;18.926;2024-03-23T17:42:31;97326.25;;;6.70;87.36
41624;BME280;27319;50.306;18.926;2024-03-23T17:46:31;97338.91;;;6.38;86.59
41624;BME280;27319;50.306;18.926;2024-03-23T17:50:32;97345.09;;;6.56;87.47
41624;BME280;27319;50.306;18.926;2024-03-23T17:54:33;97373.09;;;6.45;86.74
41624;BME280;27319;50.306;18.926;2024-03-23T17:58:34;97371.16;;;6.38;87.63
41624;BME280;27319;50.306;18.926;2024-03-23T18:02:35;97381.91;;;6.27;87.54
41624;BME280;27319;50.306;18.926;2024-03-23T18:06:36;97401.78;;;5.98;85.47
41624;BME280;27319;50.306;18.926;2024-03-23T18:10:36;97401.66;;;5.73;86.71
41624;BME280;27319;50.306;18.926;2024-03-23T18:14:37;97414.06;;;5.92;85.57
41624;BME280;27319;50.306;18.926;2024-03-23T18:18:38;97417.81;;;5.80;86.76
41624;BME280;27319;50.306;18.926;2024-03-23T18:22:38;97416.28;;;5.83;86.50
41624;BME280;27319;50.306;18.926;2024-03-23T18:26:39;97416.31;;;5.86;85.12
41624;BME280;27319;50.306;18.926;2024-03-23T18:30:40;97420.56;;;5.87;84.67
41624;BME280;27319;50.306;18.926;2024-03-23T18:34:41;97410.06;;;5.68;85.04
41624;BME280;27319;50.306;18.926;2024-03-23T18:38:42;97400.81;;;5.59;85.33
41624;BME280;27319;50.306;18.926;2024-03-23T18:42:42;97403.81;;;5.50;85.26
41624;BME280;27319;50.306;18.926;2024-03-23T18:46:43;97437.44;;;5.88;84.55
41624;BME280;27319;50.306;18.926;2024-03-23T18:50:44;97429.91;;;5.46;83.85
41624;BME280;27319;50.306;18.926;2024-03-23T18:54:45;97434.66;;;5.77;83.06
41624;BME280;27319;50.306;18.926;2024-03-23T18:58:46;97419.53;;;5.48;83.27
41624;BME280;27319;50.306;18.926;2024-03-23T19:02:46;97434.72;;;5.84;84.57
41624;BME280;27319;50.306;18.926;2024-03-23T19:06:47;97431.78;;;5.42;84.41
41624;BME280;27319;50.306;18.926;2024-03-23T19:10:51;97433.00;;;5.55;83.39
41624;BME280;27319;50.306;18.926;2024-03-23T19:14:52;97427.13;;;5.35;82.30
41624;BME280;27319;50.306;18.926;2024-03-23T19:18:52;97420.63;;;5.36;82.29
41624;BME280;27319;50.306;18.926;2024-03-23T19:22:53;97416.88;;;5.51;81.80
41624;BME280;27319;50.306;18.926;2024-03-23T19:26:54;97397.53;;;5.25;82.23
41624;BME280;27319;50.306;18.926;2024-03-23T19:30:55;97401.41;;;5.31;81.16
41624;BME280;27319;50.306;18.926;2024-03-23T19:34:55;97401.28;;;5.13;79.31
41624;BME280;27319;50.306;18.926;2024-03-23T19:38:36;97393.78;;;5.40;80.15
41624;BME280;27319;50.306;18.926;2024-03-23T19:41:37;97409.09;;;5.32;80.27
41624;BME280;27319;50.306;18.926;2024-03-23T19:44:39;97419.84;;;5.36;78.33
41624;BME280;27319;50.306;18.926;2024-03-23T19:47:39;97423.97;;;5.23;77.66
41624;BME280;27319;50.306;18.926;2024-03-23T19:51:00;97448.06;;;5.15;76.84
41624;BME280;27319;50.306;18.926;2024-03-23T19:55:04;97444.16;;;5.06;76.85
41624;BME280;27319;50.306;18.926;2024-03-23T19:59:05;97441.81;;;4.97;77.11
41624;BME280;27319;50.306;18.926;2024-03-23T20:03:05;97449.13;;;5.04;78.42
41624;BME280;27319;50.306;18.926;2024-03-23T20:07:06;97438.78;;;5.02;77.27
41624;BME280;27319;50.306;18.926;2024-03-23T20:22:09;97447.56;;;4.99;76.10
41624;BME280;27319;50.306;18.926;2024-03-23T20:25:10;97450.03;;;4.78;76.62
41624;BME280;27319;50.306;18.926;2024-03-23T20:28:11;97448.47;;;4.73;79.23
41624;BME280;27319;50.306;18.926;2024-03-23T20:31:32;97438.59;;;4.81;79.16
41624;BME280;27319;50.306;18.926;2024-03-23T20:35:33;97440.00;;;4.68;77.96
41624;BME280;27319;50.306;18.926;2024-03-23T20:39:34;97436.25;;;4.80;77.40
41624;BME280;27319;50.306;18.926;2024-03-23T20:43:34;97447.69;;;4.73;76.42
41624;BME280;27319;50.306;18.926;2024-03-23T20:47:17;97441.69;;;4.87;77.72
41624;BME280;27319;50.306;18.926;2024-03-23T20:50:38;97447.63;;;4.66;77.22
41624;BME280;27319;50.306;18.926;2024-03-23T20:54:39;97442.28;;;4.66;77.82
41624;BME280;27319;50.306;18.926;2024-03-23T20:58:42;97434.59;;;4.64;77.39
41624;BME280;27319;50.306;18.926;2024-03-23T21:02:43;97431.53;;;4.66;76.47
41624;BME280;27319;50.306;18.926;2024-03-23T21:06:44;97444.94;;;4.62;78.22
41624;BME280;27319;50.306;18.926;2024-03-23T21:10:48;97446.19;;;4.75;76.83
41624;BME280;27319;50.306;18.926;2024-03-23T21:14:50;97446.13;;;4.68;76.96
41624;BME280;27319;50.306;18.926;2024-03-23T21:18:49;97446.84;;;4.62;77.80
41624;BME280;27319;50.306;18.926;2024-03-23T21:22:50;97445.16;;;4.47;77.30
41624;BME280;27319;50.306;18.926;2024-03-23T21:26:51;97454.25;;;4.39;77.87
41624;BME280;27319;50.306;18.926;2024-03-23T21:30:52;97431.53;;;4.29;79.28
41624;BME280;27319;50.306;18.926;2024-03-23T21:34:52;97428.34;;;4.53;77.24
41624;BME280;27319;50.306;18.926;2024-03-23T21:38:53;97412.91;;;4.40;76.80
41624;BME280;27319;50.306;18.926;2024-03-23T21:42:54;97415.78;;;4.24;76.32
41624;BME280;27319;50.306;18.926;2024-03-23T21:46:55;97406.03;;;4.42;76.97
41624;BME280;27319;50.306;18.926;2024-03-23T21:50:58;97400.78;;;4.53;76.26
41624;BME280;27319;50.306;18.926;2024-03-23T21:54:56;97398.50;;;4.55;77.18
41624;BME280;27319;50.306;18.926;2024-03-23T21:58:32;97405.56;;;4.36;77.45